createdAt,value
2023-05-10T00:00:15.637Z,100500.81
2023-05-10T00:02:48.401Z,100502.66
2023-05-10T00:05:21.068Z,100498.97
2023-05-10T00:07:53.532Z,100501.41
2023-05-10T00:10:26.048Z,100505.56
2023-05-10T00:12:58.503Z,100502.66
2023-05-10T00:15:33.933Z,100503.47
2023-05-10T00:18:06.473Z,100496.72
2023-05-10T00:20:39.053Z,100492.22
2023-05-10T00:23:11.514Z,100490.94
2023-05-10T00:25:44.012Z,100496.31
2023-05-10T00:28:16.398Z,100494.53
2023-05-10T00:30:48.872Z,100493.84
2023-05-10T00:33:21.443Z,100498.34
2023-05-10T00:35:53.922Z,100497.81
2023-05-10T00:38:26.764Z,100502.34
2023-05-10T00:40:59.195Z,100505.94
2023-05-10T00:43:31.686Z,100502.13
2023-05-10T00:46:05.293Z,100496.66
2023-05-10T00:48:37.877Z,100500.09
2023-05-10T00:51:10.938Z,100498.38
2023-05-10T00:53:45.139Z,100497.41
2023-05-10T00:56:17.870Z,100494.47
2023-05-10T00:58:50.564Z,100492.69
2023-05-10T01:01:23.217Z,100492.53
2023-05-10T01:03:56.349Z,100490.66
2023-05-10T01:06:28.924Z,100497.00
2023-05-10T01:09:01.454Z,100493.31
2023-05-10T01:11:38.953Z,100497.75
2023-05-10T01:14:11.701Z,100493.91
2023-05-10T01:16:46.594Z,100491.06
2023-05-10T01:19:27.673Z,100499.22
2023-05-10T01:22:33.878Z,100491.06
2023-05-10T01:25:23.735Z,100489.09
2023-05-10T01:28:14.900Z,100486.78
2023-05-10T01:31:08.608Z,100487.81
2023-05-10T01:33:59.961Z,100492.69
2023-05-10T01:36:39.505Z,100489.78
2023-05-10T01:39:43.483Z,100491.06
2023-05-10T01:42:21.093Z,100492.19
2023-05-10T01:44:56.169Z,100487.13
2023-05-10T01:48:04.181Z,100486.19
2023-05-10T01:50:39.650Z,100491.38
2023-05-10T01:53:14.119Z,100488.56
2023-05-10T01:55:50.315Z,100486.75
2023-05-10T01:58:31.380Z,100492.47
2023-05-10T02:01:06.836Z,100496.78
2023-05-10T02:03:40.920Z,100499.38
2023-05-10T02:06:15.879Z,100505.28
2023-05-10T02:08:50.316Z,100498.63
2023-05-10T02:11:24.086Z,100504.25
2023-05-10T02:13:58.170Z,100506.13
2023-05-10T02:16:32.864Z,100504.25
2023-05-10T02:19:06.332Z,100517.84
2023-05-10T02:21:40.980Z,100516.66
2023-05-10T02:24:14.960Z,100517.59
2023-05-10T02:26:49.409Z,100522.56
2023-05-10T02:29:24.345Z,100524.72
2023-05-10T02:31:58.572Z,100517.06
2023-05-10T02:34:32.090Z,100516.94
2023-05-10T02:37:07.038Z,100518.16
2023-05-10T02:39:44.589Z,100518.69
2023-05-10T02:42:19.710Z,100523.41
2023-05-10T02:44:57.021Z,100519.72
2023-05-10T02:47:30.732Z,100518.22
2023-05-10T02:50:03.684Z,100521.97
2023-05-10T02:52:41.090Z,100517.13
2023-05-10T02:55:17.178Z,100517.13
2023-05-10T02:57:58.170Z,100521.75
2023-05-10T03:00:30.861Z,100520.91
2023-05-10T03:03:03.442Z,100522.88
2023-05-10T03:05:36.061Z,100531.53
2023-05-10T03:08:08.869Z,100521.63
2023-05-10T03:10:56.593Z,100523.00
2023-05-10T03:14:10.641Z,100525.84
2023-05-10T03:16:48.160Z,100521.34
2023-05-10T03:19:57.244Z,100533.69
2023-05-10T03:22:33.321Z,100532.94
2023-05-10T03:25:09.382Z,100525.56
2023-05-10T03:27:44.361Z,100528.56
2023-05-10T03:30:17.886Z,100532.69
2023-05-10T03:32:50.780Z,100530.97
2023-05-10T03:35:24.599Z,100540.19
2023-05-10T03:37:57.084Z,100536.19
2023-05-10T03:40:32.364Z,100539.88
2023-05-10T03:43:05.167Z,100540.56
2023-05-10T03:45:37.687Z,100542.81
2023-05-10T03:48:10.801Z,100546.94
2023-05-10T03:50:43.893Z,100547.94
2023-05-10T03:53:16.976Z,100545.56
2023-05-10T03:55:49.510Z,100548.53
2023-05-10T03:58:22.794Z,100549.47
2023-05-10T04:00:55.288Z,100550.38
2023-05-10T04:03:28.058Z,100548.44
2023-05-10T04:06:03.922Z,100560.28
2023-05-10T04:08:36.418Z,100557.03
2023-05-10T04:11:13.514Z,100554.03
2023-05-10T04:13:46.049Z,100563.72
2023-05-10T04:16:18.488Z,100556.91
2023-05-10T04:18:51.496Z,100564.47
2023-05-10T04:21:24.137Z,100556.16
2023-05-10T04:23:56.546Z,100559.63
2023-05-10T04:26:29.110Z,100568.09
2023-05-10T04:29:01.587Z,100566.13
2023-05-10T04:31:34.364Z,100566.88
2023-05-10T04:34:06.872Z,100565.50
2023-05-10T04:36:39.326Z,100575.41
2023-05-10T04:39:11.736Z,100561.25
2023-05-10T04:41:44.262Z,100566.94
2023-05-10T04:44:16.737Z,100569.09
2023-05-10T04:46:49.188Z,100581.44
2023-05-10T04:49:21.728Z,100571.03
2023-05-10T04:51:54.250Z,100565.03
2023-05-10T04:54:26.706Z,100574.66
2023-05-10T04:56:59.207Z,100572.66
2023-05-10T04:59:31.619Z,100572.63
2023-05-10T05:02:04.502Z,100576.47
2023-05-10T05:04:37.165Z,100576.66
2023-05-10T05:07:09.683Z,100574.00
2023-05-10T05:09:42.135Z,100576.22
2023-05-10T05:12:15.318Z,100580.13
2023-05-10T05:14:47.810Z,100585.81
2023-05-10T05:17:20.326Z,100580.03
2023-05-10T05:19:52.728Z,100587.72
2023-05-10T05:22:28.684Z,100590.97
2023-05-10T05:25:02.798Z,100592.13
2023-05-10T05:27:35.206Z,100590.22
2023-05-10T05:30:08.152Z,100591.78
2023-05-10T05:32:40.735Z,100594.75
2023-05-10T05:35:13.366Z,100601.00
2023-05-10T05:37:45.906Z,100604.16
2023-05-10T05:40:18.400Z,100599.84
2023-05-10T05:42:50.883Z,100604.22
2023-05-10T05:45:23.355Z,100602.38
2023-05-10T05:47:56.026Z,100607.72
2023-05-10T05:50:28.574Z,100602.94
2023-05-10T05:53:01.060Z,100608.53
2023-05-10T05:55:33.543Z,100612.81
2023-05-10T05:58:06.034Z,100609.25
2023-05-10T06:00:38.536Z,100607.94
2023-05-10T06:03:11.562Z,100615.56
2023-05-10T06:05:44.813Z,100628.38
2023-05-10T06:08:17.321Z,100626.13
2023-05-10T06:10:49.771Z,100624.19
2023-05-10T06:13:22.298Z,100624.31
2023-05-10T06:15:54.721Z,100630.69
2023-05-10T06:18:27.160Z,100634.94
2023-05-10T06:20:59.661Z,100629.03
2023-05-10T06:23:32.163Z,100634.09
2023-05-10T06:26:04.822Z,100638.13
2023-05-10T06:28:39.277Z,100640.84
2023-05-10T06:31:12.823Z,100641.16
2023-05-10T06:33:45.683Z,100639.88
2023-05-10T06:36:18.152Z,100640.84
2023-05-10T06:38:52.122Z,100645.13
2023-05-10T06:41:24.953Z,100649.06
2023-05-10T06:43:57.428Z,100651.41
2023-05-10T06:46:29.910Z,100644.75
2023-05-10T06:49:02.451Z,100649.16
2023-05-10T06:51:35.112Z,100658.63
2023-05-10T06:54:07.822Z,100658.84
2023-05-10T06:56:40.407Z,100662.75
2023-05-10T06:59:14.421Z,100658.44
2023-05-10T07:01:47.052Z,100664.28
2023-05-10T07:04:19.697Z,100656.16
2023-05-10T07:06:52.161Z,100670.81
2023-05-10T07:09:25.443Z,100667.22
2023-05-10T07:11:58.607Z,100672.81
2023-05-10T07:14:30.978Z,100676.06
2023-05-10T07:17:03.448Z,100678.69
2023-05-10T07:19:36.247Z,100678.41
2023-05-10T07:22:08.755Z,100681.75
2023-05-10T07:24:41.411Z,100687.84
2023-05-10T07:27:14.087Z,100691.72
2023-05-10T07:29:46.529Z,100696.28
2023-05-10T07:32:19.288Z,100697.00
2023-05-10T07:34:51.800Z,100697.72
2023-05-10T07:37:24.244Z,100703.66
2023-05-10T07:39:57.130Z,100701.59
2023-05-10T07:42:29.564Z,100692.09
2023-05-10T07:45:02.001Z,100706.78
2023-05-10T07:47:34.574Z,100687.69
2023-05-10T07:50:08.015Z,100700.59
2023-05-10T07:52:40.416Z,100707.34
2023-05-10T07:55:12.911Z,100709.44
2023-05-10T07:57:45.845Z,100712.44
2023-05-10T08:00:20.134Z,100719.75
2023-05-10T08:02:52.573Z,100714.19
2023-05-10T08:05:25.102Z,100711.13
2023-05-10T08:07:57.547Z,100717.84
2023-05-10T08:10:30.031Z,100728.50
2023-05-10T08:13:02.509Z,100721.41
2023-05-10T08:15:34.966Z,100725.75
2023-05-10T08:18:07.515Z,100731.56
2023-05-10T08:20:41.101Z,100732.16
2023-05-10T08:23:14.131Z,100743.25
2023-05-10T08:25:46.655Z,100742.50
2023-05-10T08:28:19.218Z,100748.88
2023-05-10T08:30:52.011Z,100754.16
2023-05-10T08:33:24.568Z,100746.19
2023-05-10T08:35:57.116Z,100749.06
2023-05-10T08:38:29.661Z,100747.16
2023-05-10T08:41:03.418Z,100753.38
2023-05-10T08:43:36.878Z,100746.81
2023-05-10T08:46:11.279Z,100750.34
2023-05-10T08:48:45.505Z,100753.03
2023-05-10T08:51:24.926Z,100752.59
2023-05-10T08:53:57.916Z,100759.19
2023-05-10T08:56:30.407Z,100762.22
2023-05-10T08:59:02.870Z,100752.47
2023-05-10T09:01:39.421Z,100752.69
2023-05-10T09:04:13.067Z,100753.56
2023-05-10T09:06:45.634Z,100759.59
2023-05-10T09:09:19.484Z,100759.97
2023-05-10T09:11:52.818Z,100761.28
2023-05-10T09:14:26.045Z,100764.53
2023-05-10T09:16:58.663Z,100767.88
2023-05-10T09:19:31.215Z,100761.66
2023-05-10T09:22:03.690Z,100765.88
2023-05-10T09:24:37.826Z,100759.81
2023-05-10T09:27:10.655Z,100767.41
2023-05-10T09:29:43.924Z,100773.13
2023-05-10T09:32:16.410Z,100764.44
2023-05-10T09:34:51.029Z,100762.09
2023-05-10T09:37:30.528Z,100774.41
2023-05-10T09:40:06.061Z,100768.88
2023-05-10T09:42:38.759Z,100770.50
2023-05-10T09:45:11.243Z,100771.63
2023-05-10T09:47:44.091Z,100780.28
2023-05-10T09:50:16.649Z,100774.09
2023-05-10T09:52:54.953Z,100789.44
2023-05-10T09:55:39.799Z,100787.94
2023-05-10T09:58:13.580Z,100798.25
2023-05-10T10:00:48.722Z,100789.91
2023-05-10T10:03:22.175Z,100790.63
2023-05-10T10:05:56.950Z,100791.66
2023-05-10T10:08:29.501Z,100787.78
2023-05-10T10:11:02.432Z,100795.31
2023-05-10T10:13:35.427Z,100787.63
2023-05-10T10:16:09.774Z,100796.91
2023-05-10T10:18:43.552Z,100793.72
2023-05-10T10:21:16.288Z,100787.72
2023-05-10T10:23:48.972Z,100795.66
2023-05-10T10:26:22.393Z,100788.63
2023-05-10T10:29:10.001Z,100786.44
2023-05-10T10:31:57.892Z,100780.88
2023-05-10T10:34:31.872Z,100792.69
2023-05-10T10:37:07.985Z,100779.06
2023-05-10T10:39:40.437Z,100792.47
2023-05-10T10:42:12.978Z,100788.31
2023-05-10T10:44:45.766Z,100791.34
2023-05-10T10:47:25.474Z,100784.34
2023-05-10T10:50:01.452Z,100798.75
2023-05-10T10:52:44.429Z,100796.81
2023-05-10T10:55:25.896Z,100796.47
2023-05-10T10:58:01.774Z,100802.19
2023-05-10T11:00:37.477Z,100798.72
2023-05-10T11:03:15.701Z,100790.72
2023-05-10T11:05:49.972Z,100793.22
2023-05-10T11:08:30.668Z,100793.19
2023-05-10T11:11:08.214Z,100792.41
2023-05-10T11:13:42.815Z,100790.63
2023-05-10T11:16:26.342Z,100801.22
2023-05-10T11:19:08.666Z,100799.09
2023-05-10T11:22:14.591Z,100796.28
2023-05-10T11:24:57.850Z,100799.75
2023-05-10T11:27:30.261Z,100801.06
2023-05-10T11:30:06.767Z,100795.56
2023-05-10T11:32:40.112Z,100791.16
2023-05-10T11:35:13.096Z,100806.66
2023-05-10T11:37:49.252Z,100806.75
2023-05-10T11:40:25.481Z,100816.00
2023-05-10T11:42:58.095Z,100825.03
2023-05-10T11:45:33.490Z,100821.66
2023-05-10T11:48:06.154Z,100826.00
2023-05-10T11:50:38.797Z,100830.44
2023-05-10T11:53:11.370Z,100826.81
2023-05-10T11:55:44.480Z,100845.16
2023-05-10T11:58:16.975Z,100840.03
2023-05-10T12:00:49.743Z,100848.28
2023-05-10T12:03:22.854Z,100847.81
2023-05-10T12:05:56.868Z,100849.72
2023-05-10T12:08:31.796Z,100853.22
2023-05-10T12:11:09.642Z,100852.59
2023-05-10T12:13:48.250Z,100850.44
2023-05-10T12:16:26.148Z,100843.75
2023-05-10T12:19:00.526Z,100853.13
2023-05-10T12:21:34.210Z,100855.16
2023-05-10T12:24:07.324Z,100855.03
2023-05-10T12:26:52.128Z,100851.56
2023-05-10T12:29:24.532Z,100860.06
2023-05-10T12:31:59.309Z,100864.78
2023-05-10T12:34:34.553Z,100852.28
2023-05-10T12:37:07.641Z,100854.25
2023-05-10T12:39:45.035Z,100855.38
2023-05-10T12:42:17.548Z,100862.25
2023-05-10T12:44:50.010Z,100867.59
2023-05-10T12:47:22.454Z,100861.94
2023-05-10T12:49:54.875Z,100859.00
2023-05-10T12:52:27.498Z,100863.03
2023-05-10T12:55:01.056Z,100866.47
2023-05-10T12:57:33.482Z,100865.03
2023-05-10T13:00:06.945Z,100860.50
2023-05-10T13:02:39.454Z,100857.38
2023-05-10T13:05:14.023Z,100856.66
2023-05-10T13:07:46.504Z,100853.94
2023-05-10T13:10:19.064Z,100863.63
2023-05-10T13:12:51.929Z,100868.22
2023-05-10T13:15:24.479Z,100868.75
2023-05-10T13:17:56.924Z,100870.75
2023-05-10T13:20:29.403Z,100864.00
2023-05-10T13:23:01.880Z,100875.09
2023-05-10T13:25:35.316Z,100881.00
2023-05-10T13:28:07.907Z,100886.34
2023-05-10T13:30:40.381Z,100887.00
2023-05-10T13:33:13.068Z,100892.22
2023-05-10T13:35:46.147Z,100891.16
2023-05-10T13:38:19.469Z,100895.09
2023-05-10T13:40:53.853Z,100888.22
2023-05-10T13:43:26.436Z,100879.41
2023-05-10T13:45:59.044Z,100890.72
2023-05-10T13:48:31.466Z,100896.84
2023-05-10T13:51:04.731Z,100898.59
2023-05-10T13:53:37.441Z,100902.50
2023-05-10T13:56:09.953Z,100901.94
2023-05-10T13:58:42.514Z,100908.56
2023-05-10T14:01:15.037Z,100906.81
2023-05-10T14:03:47.675Z,100906.88
2023-05-10T14:06:20.175Z,100905.78
2023-05-10T14:08:52.934Z,100898.38
2023-05-10T14:11:25.314Z,100909.31
2023-05-10T14:13:57.709Z,100909.97
2023-05-10T14:16:30.101Z,100899.59
2023-05-10T14:19:02.716Z,100897.84
2023-05-10T14:21:35.165Z,100901.09
2023-05-10T14:24:08.112Z,100901.94
2023-05-10T14:26:40.509Z,100889.34
2023-05-10T14:29:12.960Z,100890.31
2023-05-10T14:31:45.406Z,100897.72
2023-05-10T14:34:17.967Z,100889.13
2023-05-10T14:36:50.868Z,100894.88
2023-05-10T14:39:23.759Z,100893.91
2023-05-10T14:41:56.463Z,100890.09
2023-05-10T14:44:29.220Z,100893.66
2023-05-10T14:47:01.669Z,100896.97
2023-05-10T14:49:34.148Z,100893.91
2023-05-10T14:52:06.584Z,100896.97
2023-05-10T14:54:39.657Z,100903.53
2023-05-10T14:57:12.164Z,100900.28
2023-05-10T14:59:44.565Z,100907.06
2023-05-10T15:02:17.531Z,100909.00
2023-05-10T15:04:50.561Z,100914.22
2023-05-10T15:07:23.399Z,100909.63
2023-05-10T15:09:55.913Z,100903.66
2023-05-10T15:12:28.403Z,100903.94
2023-05-10T15:15:00.851Z,100901.69
2023-05-10T15:17:33.851Z,100898.84
2023-05-10T15:20:07.116Z,100898.91
2023-05-10T15:22:39.508Z,100897.75
2023-05-10T15:25:11.979Z,100897.25
2023-05-10T15:27:44.665Z,100899.50
2023-05-10T15:30:17.145Z,100895.59
2023-05-10T15:32:49.811Z,100899.72
2023-05-10T15:35:22.365Z,100896.25
2023-05-10T15:37:54.803Z,100903.63
2023-05-10T15:40:27.225Z,100908.75
2023-05-10T15:42:59.623Z,100905.53
2023-05-10T15:45:32.227Z,100902.81
2023-05-10T15:48:05.210Z,100907.81
2023-05-10T15:50:37.697Z,100905.88
2023-05-10T15:53:10.179Z,100914.50
2023-05-10T15:55:44.026Z,100921.53
2023-05-10T15:58:16.757Z,100927.81
2023-05-10T16:00:49.432Z,100931.63
2023-05-10T16:03:21.943Z,100931.53
2023-05-10T16:05:54.854Z,100941.41
2023-05-10T16:08:30.680Z,100949.25
2023-05-10T16:11:03.531Z,100951.66
2023-05-10T16:13:36.057Z,100953.53
2023-05-10T16:16:08.970Z,100951.78
2023-05-10T16:18:41.809Z,100943.31
2023-05-10T16:21:14.421Z,100956.84
2023-05-10T16:23:47.021Z,100954.16
2023-05-10T16:26:19.427Z,100948.09
2023-05-10T16:28:52.241Z,100947.34
2023-05-10T16:31:24.742Z,100948.72
2023-05-10T16:33:57.209Z,100951.44
2023-05-10T16:36:29.718Z,100941.66
2023-05-10T16:39:02.632Z,100950.66
2023-05-10T16:41:35.276Z,100952.19
2023-05-10T16:44:07.793Z,100944.28
2023-05-10T16:46:40.773Z,100954.72
2023-05-10T16:49:13.977Z,100947.53
2023-05-10T16:51:46.594Z,100957.25
2023-05-10T16:54:20.178Z,100954.50
2023-05-10T16:56:52.648Z,100953.69
2023-05-10T16:59:25.264Z,100961.59
2023-05-10T17:01:57.869Z,100970.41
2023-05-10T17:04:30.642Z,100963.41
2023-05-10T17:07:03.665Z,100962.50
2023-05-10T17:09:36.373Z,100968.09
2023-05-10T17:12:08.858Z,100974.72
2023-05-10T17:14:41.285Z,100963.13
2023-05-10T17:17:13.781Z,100968.19
2023-05-10T17:19:46.288Z,100968.81
2023-05-10T17:22:18.863Z,100974.13
2023-05-10T17:24:51.367Z,100980.28
2023-05-10T17:27:23.801Z,100984.69
2023-05-10T17:29:59.663Z,100985.69
2023-05-10T17:32:32.255Z,100979.63
2023-05-10T17:35:06.112Z,100984.59
2023-05-10T17:37:38.721Z,100982.91
2023-05-10T17:40:11.574Z,100993.66
2023-05-10T17:42:44.458Z,100992.88
2023-05-10T17:45:17.407Z,100998.31
2023-05-10T17:47:50.096Z,100990.63
2023-05-10T17:50:22.617Z,100984.03
2023-05-10T17:52:55.136Z,100994.66
2023-05-10T17:55:30.030Z,100983.72
2023-05-10T17:58:02.551Z,100984.59
2023-05-10T18:00:35.934Z,100986.25
2023-05-10T18:03:08.711Z,100984.22
2023-05-10T18:05:41.377Z,100988.47
2023-05-10T18:08:14.994Z,100987.44
2023-05-10T18:10:47.401Z,100988.59
2023-05-10T18:13:19.923Z,100991.25
2023-05-10T18:15:52.551Z,100996.28
2023-05-10T18:18:25.529Z,100989.81
2023-05-10T18:20:58.312Z,100993.78
2023-05-10T18:23:31.081Z,101000.56
2023-05-10T18:26:03.704Z,101009.28
2023-05-10T18:28:37.110Z,101002.94
2023-05-10T18:31:09.776Z,101015.34
2023-05-10T18:33:42.310Z,101011.09
2023-05-10T18:36:15.027Z,101012.22
2023-05-10T18:38:47.429Z,101008.97
2023-05-10T18:41:20.007Z,101010.19
2023-05-10T18:43:53.028Z,101020.13
2023-05-10T18:46:25.726Z,101018.16
2023-05-10T18:48:58.307Z,101017.75
2023-05-10T18:51:31.517Z,101019.13
2023-05-10T18:54:04.521Z,101020.53
2023-05-10T18:56:36.995Z,101019.16
2023-05-10T18:59:09.573Z,101015.16
2023-05-10T19:01:42.121Z,101012.38
2023-05-10T19:04:14.697Z,101011.94
2023-05-10T19:06:47.263Z,101021.97
2023-05-10T19:09:23.003Z,101007.06
2023-05-10T19:11:55.614Z,101018.00
2023-05-10T19:14:28.746Z,101020.78
2023-05-10T19:17:03.430Z,101025.59
2023-05-10T19:19:36.039Z,101029.22
2023-05-10T19:22:08.726Z,101025.19
2023-05-10T19:24:41.201Z,101033.06
2023-05-10T19:27:14.915Z,101032.34
2023-05-10T19:29:47.737Z,101029.72
2023-05-10T19:32:23.333Z,101030.84
2023-05-10T19:34:56.533Z,101029.22
2023-05-10T19:37:28.984Z,101034.25
2023-05-10T19:40:01.604Z,101034.88
2023-05-10T19:42:39.768Z,101037.75
2023-05-10T19:45:12.365Z,101038.84
2023-05-10T19:47:45.110Z,101034.34
2023-05-10T19:50:18.346Z,101046.66
2023-05-10T19:52:54.302Z,101046.91
2023-05-10T19:55:34.062Z,101048.72
2023-05-10T19:58:06.533Z,101050.63
2023-05-10T20:00:38.972Z,101051.22
2023-05-10T20:03:11.655Z,101046.81
2023-05-10T20:05:44.181Z,101050.63
2023-05-10T20:08:16.855Z,101053.28
2023-05-10T20:10:49.322Z,101049.72
2023-05-10T20:13:21.887Z,101058.59
2023-05-10T20:16:00.550Z,101055.78
2023-05-10T20:18:33.577Z,101057.78
2023-05-10T20:21:06.477Z,101059.75
2023-05-10T20:23:38.988Z,101057.31
2023-05-10T20:26:14.153Z,101057.41
2023-05-10T20:28:46.552Z,101060.13
2023-05-10T20:31:19.111Z,101053.91
2023-05-10T20:33:51.622Z,101053.06
2023-05-10T20:36:24.507Z,101053.91
2023-05-10T20:38:58.956Z,101051.09
2023-05-10T20:41:31.439Z,101056.50
2023-05-10T20:44:05.534Z,101069.88
2023-05-10T20:46:38.092Z,101061.06
2023-05-10T20:49:10.646Z,101063.78
2023-05-10T20:51:43.112Z,101062.09
2023-05-10T20:54:15.654Z,101070.00
2023-05-10T20:56:48.269Z,101061.22
2023-05-10T20:59:21.832Z,101071.81
2023-05-10T21:01:54.486Z,101069.19
2023-05-10T21:04:27.230Z,101064.69
2023-05-10T21:06:59.758Z,101059.44
2023-05-10T21:09:32.345Z,101070.72
2023-05-10T21:12:05.065Z,101069.81
2023-05-10T21:14:37.565Z,101067.19
2023-05-10T21:17:10.206Z,101067.19
2023-05-10T21:19:42.842Z,101061.91
2023-05-10T21:22:15.373Z,101067.19
2023-05-10T21:24:47.790Z,101070.63
2023-05-10T21:27:20.660Z,101065.38
2023-05-10T21:29:53.548Z,101064.88
2023-05-10T21:32:26.082Z,101058.47
2023-05-10T21:34:58.516Z,101059.25
2023-05-10T21:37:31.100Z,101064.00
2023-05-10T21:40:04.737Z,101066.66
2023-05-10T21:42:37.294Z,101076.47
2023-05-10T21:45:10.188Z,101070.91
2023-05-10T21:47:42.629Z,101075.34
2023-05-10T21:50:15.451Z,101072.53
2023-05-10T21:52:48.083Z,101069.72
2023-05-10T21:55:20.588Z,101077.75
2023-05-10T21:57:53.026Z,101073.19
2023-05-10T22:00:25.483Z,101071.31
2023-05-10T22:02:58.107Z,101073.03
2023-05-10T22:05:30.742Z,101077.31
2023-05-10T22:08:03.235Z,101072.06
2023-05-10T22:10:35.731Z,101085.25
2023-05-10T22:13:08.194Z,101081.69
2023-05-10T22:15:40.773Z,101079.88
2023-05-10T22:18:13.310Z,101077.47
2023-05-10T22:20:46.614Z,101083.53
2023-05-10T22:23:19.085Z,101079.22
2023-05-10T22:25:51.563Z,101076.41
2023-05-10T22:28:23.949Z,101080.94
2023-05-10T22:30:56.614Z,101081.78
2023-05-10T22:33:29.165Z,101079.03
2023-05-10T22:36:01.565Z,101084.34
2023-05-10T22:38:34.030Z,101079.03
2023-05-10T22:41:06.664Z,101078.97
2023-05-10T22:43:39.400Z,101072.97
2023-05-10T22:46:12.133Z,101078.19
2023-05-10T22:48:44.636Z,101086.09
2023-05-10T22:51:17.195Z,101084.28
2023-05-10T22:53:49.659Z,101086.19
2023-05-10T22:56:22.560Z,101081.78
2023-05-10T22:58:55.098Z,101078.13
2023-05-10T23:01:27.584Z,101080.03
2023-05-10T23:03:59.981Z,101085.34
2023-05-10T23:06:33.078Z,101087.94
2023-05-10T23:09:05.753Z,101082.78
2023-05-10T23:11:38.181Z,101087.31
2023-05-10T23:14:10.691Z,101089.09
2023-05-10T23:16:43.203Z,101085.44
2023-05-10T23:19:15.718Z,101091.75
2023-05-10T23:21:48.143Z,101087.34
2023-05-10T23:24:20.635Z,101092.72
2023-05-10T23:26:53.115Z,101090.13
2023-05-10T23:29:26.343Z,101097.06
2023-05-10T23:31:58.929Z,101087.41
2023-05-10T23:34:32.210Z,101093.53
2023-05-10T23:37:04.605Z,101088.41
2023-05-10T23:39:37.006Z,101089.22
2023-05-10T23:42:09.445Z,101090.06
2023-05-10T23:44:41.974Z,101090.13
2023-05-10T23:47:14.532Z,101091.81
2023-05-10T23:49:46.996Z,101091.81
2023-05-10T23:52:22.699Z,101091.88
2023-05-10T23:54:55.294Z,101088.47
2023-05-10T23:57:27.760Z,101081.34
